Time;durP1;ratioP1;P1;durP2;ratioP2;P2;SDS_P1;SDS_P2;PMS_P1;PMS_P2;Temp;Humidity;BMP_temperature;BMP_pressure;BME280_temperature;BME280_humidity;BME280_pressure;Samples;Min_cycle;Max_cycle;Signal;HPM_P1;HPM_P2
2023/09/23 00:01:05;;;;;;;7.38;2.92;;;9.60;99.90;;;;;;5032341;28;20021;-82
2023/09/23 00:03:33;;;;;;;3.78;3.10;;;9.70;99.90;;;;;;5014342;28;20040;-83
2023/09/23 00:06:00;;;;;;;6.93;3.28;;;9.60;99.90;;;;;;5040996;28;20026;-83
2023/09/23 00:08:26;;;;;;;8.00;3.65;;;9.70;99.90;;;;;;5034374;28;20063;-83
2023/09/23 00:11:40;;;;;;;7.85;3.40;;;9.60;99.90;;;;;;5029692;28;20107;-83
2023/09/23 00:14:06;;;;;;;8.23;3.72;;;9.50;99.90;;;;;;5019282;28;20116;-82
2023/09/23 00:16:32;;;;;;;3.92;3.55;;;9.50;99.90;;;;;;5042081;28;20104;-83
2023/09/23 00:18:58;;;;;;;5.50;3.58;;;9.50;99.90;;;;;;5020673;28;20545;-83
2023/09/23 00:21:24;;;;;;;4.80;4.20;;;9.50;99.90;;;;;;5029576;28;20040;-83
2023/09/23 00:23:49;;;;;;;6.60;4.22;;;9.50;99.90;;;;;;5038405;28;20025;-83
2023/09/23 00:26:17;;;;;;;7.15;3.75;;;9.40;99.90;;;;;;5029121;28;20068;-83
2023/09/23 00:28:46;;;;;;;7.03;3.97;;;9.40;99.90;;;;;;5006378;28;20033;-83
2023/09/23 00:31:14;;;;;;;6.65;4.03;;;9.50;99.90;;;;;;5030824;28;20078;-83
2023/09/23 00:33:41;;;;;;;6.90;4.60;;;9.50;99.90;;;;;;5028037;28;20032;-83
2023/09/23 00:36:08;;;;;;;5.00;4.40;;;9.50;99.90;;;;;;5034458;28;20029;-82
2023/09/23 00:38:35;;;;;;;5.32;4.68;;;9.40;99.90;;;;;;5033845;28;20048;-83
2023/09/23 00:41:03;;;;;;;7.05;4.78;;;9.40;99.90;;;;;;5034775;28;20021;-83
2023/09/23 00:43:32;;;;;;;7.97;5.10;;;9.40;99.90;;;;;;5033266;28;20032;-83
2023/09/23 00:45:59;;;;;;;6.28;4.50;;;9.40;99.90;;;;;;5018118;28;20021;-83
2023/09/23 00:48:25;;;;;;;8.20;4.93;;;9.40;99.90;;;;;;5037905;28;20837;-83
2023/09/23 00:51:00;;;;;;;5.15;4.65;;;9.30;99.90;;;;;;5027373;28;20446;-83
2023/09/23 00:53:27;;;;;;;8.85;5.60;;;9.30;99.90;;;;;;5016735;28;20527;-83
2023/09/23 00:55:55;;;;;;;7.57;5.03;;;9.30;99.90;;;;;;5028298;28;20032;-83
2023/09/23 00:58:22;;;;;;;12.20;5.55;;;9.30;99.90;;;;;;5033702;28;20031;-83
2023/09/23 01:00:49;;;;;;;7.78;5.18;;;9.40;99.90;;;;;;5017308;28;20025;-83
2023/09/23 01:03:18;;;;;;;11.32;5.20;;;9.40;99.90;;;;;;5026071;28;20028;-83
2023/09/23 01:05:45;;;;;;;7.10;4.70;;;9.40;99.90;;;;;;5012641;28;20116;-83
2023/09/23 01:08:12;;;;;;;7.75;5.40;;;9.30;99.90;;;;;;5019440;28;20030;-83
2023/09/23 01:10:38;;;;;;;7.80;5.10;;;9.30;99.90;;;;;;5036257;28;20061;-83
2023/09/23 01:13:08;;;;;;;9.13;6.25;;;9.20;99.90;;;;;;5031298;28;20048;-83
2023/09/23 01:15:38;;;;;;;7.40;5.57;;;9.10;99.90;;;;;;5045661;28;20037;-83
2023/09/23 01:18:13;;;;;;;7.68;5.90;;;9.10;99.90;;;;;;5022091;28;20083;-83
2023/09/23 01:20:49;;;;;;;8.30;5.82;;;9.10;99.90;;;;;;5022704;28;20491;-84
2023/09/23 01:23:15;;;;;;;7.18;5.43;;;9.10;99.90;;;;;;5022961;28;20045;-84
2023/09/23 01:25:42;;;;;;;7.50;6.00;;;9.20;99.90;;;;;;5047337;28;20018;-83
2023/09/23 01:28:13;;;;;;;5.85;5.25;;;9.20;99.90;;;;;;5036602;28;20504;-83
2023/09/23 01:30:40;;;;;;;7.25;5.70;;;9.20;99.90;;;;;;5027535;28;20108;-83
2023/09/23 01:33:10;;;;;;;10.43;5.43;;;9.20;99.90;;;;;;5034470;28;20769;-83
2023/09/23 01:35:36;;;;;;;7.88;5.40;;;9.20;99.90;;;;;;5020345;28;20037;-83
2023/09/23 01:38:06;;;;;;;12.27;6.13;;;9.20;99.90;;;;;;5034332;28;20086;-83
2023/09/23 01:40:33;;;;;;;6.90;5.72;;;9.20;99.90;;;;;;5047236;28;20116;-83
2023/09/23 01:43:00;;;;;;;12.07;6.18;;;9.30;99.90;;;;;;5027294;28;20389;-83
2023/09/23 01:45:27;;;;;;;9.57;5.50;;;9.20;99.90;;;;;;5032900;28;20029;-83
2023/09/23 01:47:56;;;;;;;6.55;5.20;;;9.20;99.90;;;;;;5033229;28;20036;-83
2023/09/23 01:50:23;;;;;;;5.78;5.18;;;9.30;99.90;;;;;;5016670;28;20025;-83
2023/09/23 01:52:49;;;;;;;13.07;6.93;;;9.30;99.90;;;;;;5034961;28;20423;-83
2023/09/23 01:55:17;;;;;;;9.60;7.63;;;9.20;99.90;;;;;;5025805;28;20045;-83
2023/09/23 01:57:43;;;;;;;13.43;7.85;;;9.20;99.90;;;;;;5017812;28;20125;-83
2023/09/23 02:00:22;;;;;;;10.20;7.65;;;9.30;99.90;;;;;;5030736;28;20034;-83
2023/09/23 02:02:49;;;;;;;13.00;7.55;;;9.30;99.90;;;;;;5010799;28;20037;-81
2023/09/23 02:05:18;;;;;;;8.45;7.55;;;9.30;99.90;;;;;;5032912;28;20061;-81
2023/09/23 02:07:46;;;;;;;8.02;6.95;;;9.20;99.90;;;;;;5020131;28;20580;-81
2023/09/23 02:10:14;;;;;;;10.38;7.38;;;9.10;99.90;;;;;;5034217;28;20033;-81
2023/09/23 02:12:44;;;;;;;16.92;7.75;;;9.10;99.90;;;;;;5017146;28;20087;-81
2023/09/23 02:15:17;;;;;;;9.07;7.60;;;9.00;99.90;;;;;;5043511;28;20029;-82
2023/09/23 02:17:44;;;;;;;12.07;8.07;;;9.00;99.90;;;;;;5030297;28;20481;-82
2023/09/23 02:20:20;;;;;;;11.68;7.68;;;9.10;99.90;;;;;;5018967;28;20037;-82
2023/09/23 02:22:47;;;;;;;10.23;7.90;;;9.10;99.90;;;;;;5042668;28;20493;-82
2023/09/23 02:25:14;;;;;;;10.55;7.30;;;9.20;99.90;;;;;;5025962;28;20034;-82
2023/09/23 02:27:44;;;;;;;9.35;7.00;;;9.20;99.90;;;;;;5051244;28;20116;-82
2023/09/23 02:30:11;;;;;;;12.63;7.57;;;9.20;99.90;;;;;;5032272;28;20392;-82
2023/09/23 02:32:41;;;;;;;8.55;7.07;;;9.20;99.90;;;;;;5034765;28;20280;-82
2023/09/23 02:35:11;;;;;;;11.27;7.45;;;9.30;99.90;;;;;;5038293;28;20029;-82
2023/09/23 02:37:41;;;;;;;9.50;7.65;;;9.30;99.90;;;;;;5026224;28;20484;-82
2023/09/23 02:40:12;;;;;;;9.20;7.20;;;9.30;99.90;;;;;;5020936;28;20025;-82
2023/09/23 02:42:46;;;;;;;9.50;7.10;;;9.20;99.90;;;;;;5017127;28;20029;-82
2023/09/23 02:45:13;;;;;;;10.02;6.80;;;9.20;99.90;;;;;;5032557;28;20026;-82
2023/09/23 02:47:42;;;;;;;8.05;5.97;;;9.10;99.90;;;;;;5047335;28;20029;-82
2023/09/23 02:50:09;;;;;;;9.25;6.32;;;9.10;99.90;;;;;;5019732;28;20472;-82
2023/09/23 02:52:39;;;;;;;7.80;5.70;;;9.00;99.90;;;;;;5036043;28;20041;-82
2023/09/23 02:55:12;;;;;;;10.68;5.80;;;9.00;99.90;;;;;;5036485;28;20383;-82
2023/09/23 02:57:46;;;;;;;9.00;6.18;;;8.90;99.90;;;;;;5034627;28;20029;-82
2023/09/23 03:00:16;;;;;;;7.45;5.72;;;8.90;99.90;;;;;;5019668;28;20040;-82
2023/09/23 03:02:54;;;;;;;14.73;7.40;;;8.90;99.90;;;;;;5035002;28;20128;-82
2023/09/23 03:05:31;;;;;;;10.20;6.63;;;9.00;99.90;;;;;;5023190;28;20170;-82
2023/09/23 03:07:58;;;;;;;8.93;7.35;;;9.00;99.90;;;;;;5035531;28;20040;-82
2023/09/23 03:10:32;;;;;;;12.57;7.80;;;9.00;99.90;;;;;;5011255;28;20037;-82
2023/09/23 03:13:07;;;;;;;14.10;8.13;;;9.00;99.90;;;;;;5017032;28;20091;-82
2023/09/23 03:15:53;;;;;;;16.10;7.95;;;8.90;99.90;;;;;;5015994;28;20037;-82
2023/09/23 03:18:33;;;;;;;10.82;7.85;;;8.90;99.90;;;;;;5019746;28;20026;-81
2023/09/23 03:21:17;;;;;;;15.10;8.95;;;8.90;99.90;;;;;;5024284;28;20017;-81
2023/09/23 03:23:44;;;;;;;15.80;9.23;;;9.00;99.90;;;;;;5018991;28;20033;-82
2023/09/23 03:26:11;;;;;;;11.88;9.10;;;9.00;99.90;;;;;;5024383;28;20029;-82
2023/09/23 03:28:39;;;;;;;11.55;9.20;;;8.90;99.90;;;;;;5045970;28;20075;-82
2023/09/23 03:31:08;;;;;;;12.25;9.23;;;8.80;99.90;;;;;;5030258;28;20029;-82
2023/09/23 03:33:36;;;;;;;13.98;9.77;;;8.80;99.90;;;;;;5020620;28;20036;-82
2023/09/23 03:36:02;;;;;;;17.98;9.95;;;8.80;99.90;;;;;;5031583;28;20018;-82
2023/09/23 03:38:28;;;;;;;18.20;10.00;;;8.70;99.90;;;;;;5026855;28;20025;-82
2023/09/23 03:41:02;;;;;;;14.15;9.80;;;8.60;99.90;;;;;;5021581;28;20036;-83
2023/09/23 03:43:29;;;;;;;14.02;9.68;;;8.50;99.90;;;;;;5038859;28;20384;-82
2023/09/23 03:45:55;;;;;;;13.10;9.48;;;8.50;99.90;;;;;;5012498;28;20025;-82
2023/09/23 03:48:21;;;;;;;17.10;10.13;;;8.40;99.90;;;;;;5021660;28;20108;-82
2023/09/23 03:50:54;;;;;;;17.00;10.80;;;8.40;99.90;;;;;;5032157;28;20112;-83
2023/09/23 03:53:21;;;;;;;14.88;11.20;;;8.40;99.90;;;;;;5021634;28;20064;-82
2023/09/23 03:55:54;;;;;;;20.83;10.73;;;8.40;99.90;;;;;;5017783;28;20029;-82
2023/09/23 03:58:20;;;;;;;18.15;10.73;;;8.30;99.90;;;;;;5043620;28;20434;-82
2023/09/23 04:00:45;;;;;;;20.77;10.82;;;8.20;99.90;;;;;;5021539;28;20061;-83
2023/09/23 04:03:11;;;;;;;18.67;10.93;;;8.00;99.90;;;;;;5021383;28;20124;-82
2023/09/23 04:05:37;;;;;;;15.60;11.07;;;8.00;99.90;;;;;;5020312;28;20030;-82
2023/09/23 04:08:03;;;;;;;16.75;9.95;;;8.00;99.90;;;;;;5022872;28;20049;-83
2023/09/23 04:10:29;;;;;;;18.13;9.90;;;7.80;99.90;;;;;;5036774;28;20370;-82
2023/09/23 04:12:55;;;;;;;19.05;9.50;;;7.80;99.90;;;;;;5015389;28;20021;-82
2023/09/23 04:15:22;;;;;;;16.13;10.50;;;7.70;99.90;;;;;;5011740;28;20033;-82
2023/09/23 04:17:48;;;;;;;16.73;11.18;;;7.60;99.90;;;;;;5019886;28;20527;-82
2023/09/23 04:20:14;;;;;;;16.60;10.50;;;7.70;99.90;;;;;;5022548;28;20029;-82
2023/09/23 04:22:41;;;;;;;18.42;10.95;;;7.70;99.90;;;;;;5021790;28;20029;-82
2023/09/23 04:25:13;;;;;;;21.27;12.15;;;7.60;99.90;;;;;;5012408;28;20083;-82
2023/09/23 04:27:39;;;;;;;22.77;12.30;;;7.70;99.90;;;;;;5023076;28;20029;-82
2023/09/23 04:30:11;;;;;;;20.63;11.55;;;7.80;99.90;;;;;;5034093;28;20827;-81
2023/09/23 04:32:38;;;;;;;19.00;11.63;;;7.80;99.90;;;;;;5008723;28;20079;-82
2023/09/23 04:35:05;;;;;;;21.70;12.38;;;7.80;99.90;;;;;;5038221;28;20083;-82
2023/09/23 04:37:36;;;;;;;22.90;13.48;;;7.80;99.90;;;;;;5018775;28;20033;-82
2023/09/23 04:40:15;;;;;;;24.35;13.30;;;7.80;99.90;;;;;;5025428;28;20036;-82
2023/09/23 04:42:42;;;;;;;20.50;12.07;;;7.80;99.90;;;;;;5034860;28;20041;-82
2023/09/23 04:45:09;;;;;;;19.52;12.15;;;7.90;99.90;;;;;;5025227;28;20040;-82
2023/09/23 04:47:45;;;;;;;25.30;13.20;;;7.80;99.90;;;;;;5031344;28;20048;-82
2023/09/23 04:50:15;;;;;;;19.83;12.65;;;7.80;99.90;;;;;;5044349;28;20029;-82
2023/09/23 04:52:42;;;;;;;22.80;13.23;;;7.70;99.90;;;;;;5004918;28;20041;-82
2023/09/23 04:55:08;;;;;;;26.10;14.95;;;7.70;99.90;;;;;;5014960;28;20055;-81
2023/09/23 04:57:33;;;;;;;26.90;13.18;;;7.80;99.90;;;;;;5030666;28;20108;-82
2023/09/23 04:59:59;;;;;;;24.88;16.48;;;7.80;99.90;;;;;;5017848;28;20392;-83
2023/09/23 05:02:26;;;;;;;31.92;16.38;;;7.90;99.90;;;;;;5021507;28;20790;-83
2023/09/23 05:04:53;;;;;;;31.27;15.60;;;7.90;99.90;;;;;;5003041;28;20029;-83
2023/09/23 05:07:25;;;;;;;32.15;15.43;;;7.90;99.90;;;;;;5022476;28;20532;-83
2023/09/23 05:09:50;;;;;;;28.02;15.23;;;7.90;99.90;;;;;;5004330;28;20124;-83
2023/09/23 05:12:17;;;;;;;31.38;14.65;;;7.90;99.90;;;;;;5038214;28;20448;-83
2023/09/23 05:14:43;;;;;;;37.53;16.67;;;7.80;99.90;;;;;;5018019;28;20028;-83
2023/09/23 05:17:13;;;;;;;29.00;16.02;;;7.90;99.90;;;;;;5051671;28;20028;-83
2023/09/23 05:19:39;;;;;;;31.87;16.50;;;7.90;99.90;;;;;;5010005;28;20439;-83
2023/09/23 05:22:05;;;;;;;28.60;15.48;;;7.90;99.90;;;;;;5022238;28;20030;-83
2023/09/23 05:24:31;;;;;;;27.55;15.20;;;7.90;99.90;;;;;;5015825;28;20026;-83
2023/09/23 05:26:56;;;;;;;28.92;15.27;;;7.90;99.90;;;;;;5034128;28;20025;-83
2023/09/23 05:29:22;;;;;;;23.13;13.93;;;7.90;99.90;;;;;;5031327;28;20025;-83
2023/09/23 05:31:48;;;;;;;28.63;14.00;;;7.90;99.90;;;;;;5047220;28;22099;-83
2023/09/23 05:38:02;;;;;;;25.17;12.57;;;8.00;99.90;;;;;;5035098;28;20118;-83
2023/09/23 05:40:29;;;;;;;19.40;11.43;;;8.00;99.90;;;;;;5034007;28;20068;-83
2023/09/23 05:42:55;;;;;;;25.08;12.27;;;8.00;99.90;;;;;;5017188;28;20380;-84
2023/09/23 05:45:24;;;;;;;22.10;10.40;;;8.00;99.90;;;;;;5026812;28;20041;-84
2023/09/23 05:47:53;;;;;;;19.77;10.60;;;8.10;99.90;;;;;;5017669;28;20029;-83
2023/09/23 05:50:20;;;;;;;16.95;9.32;;;8.10;99.90;;;;;;5014002;28;20062;-84
2023/09/23 05:52:46;;;;;;;16.98;9.15;;;8.10;99.90;;;;;;5012269;28;20652;-83
2023/09/23 05:55:13;;;;;;;19.05;9.18;;;8.10;99.90;;;;;;5027394;28;20094;-84
2023/09/23 05:57:40;;;;;;;17.05;10.30;;;8.10;99.90;;;;;;5047008;28;20048;-83
2023/09/23 06:00:11;;;;;;;18.08;9.10;;;8.20;99.90;;;;;;5039415;28;20080;-83
2023/09/23 06:02:38;;;;;;;12.27;8.00;;;8.20;99.90;;;;;;5046718;28;20082;-84
2023/09/23 06:05:04;;;;;;;18.45;11.35;;;8.20;99.90;;;;;;5013506;28;20036;-83
2023/09/23 06:07:33;;;;;;;15.70;7.85;;;8.20;99.90;;;;;;5024270;28;20033;-83
2023/09/23 06:09:59;;;;;;;20.85;8.23;;;8.20;99.90;;;;;;5034920;28;20029;-84
2023/09/23 06:13:03;;;;;;;16.90;8.80;;;8.30;99.90;;;;;;5037966;28;20087;-84
2023/09/23 06:15:28;;;;;;;11.45;7.78;;;8.30;99.90;;;;;;5030322;28;20124;-84
2023/09/23 06:17:54;;;;;;;13.38;8.48;;;8.40;99.90;;;;;;5035816;28;20068;-84
2023/09/23 06:20:20;;;;;;;18.15;8.10;;;8.40;99.90;;;;;;5035489;28;20029;-83
2023/09/23 06:22:47;;;;;;;19.88;8.88;;;8.40;99.90;;;;;;5019898;28;20025;-84
2023/09/23 06:25:12;;;;;;;15.82;7.57;;;8.50;99.90;;;;;;5019700;28;20065;-84
2023/09/23 06:27:38;;;;;;;12.13;7.85;;;8.60;99.90;;;;;;5037677;28;20059;-84
2023/09/23 06:30:05;;;;;;;22.77;8.68;;;8.70;99.90;;;;;;5020736;28;20037;-84
2023/09/23 06:32:32;;;;;;;12.48;7.43;;;8.80;99.90;;;;;;5042028;28;20057;-84
2023/09/23 06:34:58;;;;;;;8.75;6.13;;;9.00;99.90;;;;;;5036908;28;20037;-83
2023/09/23 06:37:23;;;;;;;9.95;6.65;;;9.00;99.90;;;;;;5017147;28;20037;-84
2023/09/23 06:39:49;;;;;;;9.02;6.30;;;9.00;99.90;;;;;;5015672;28;20029;-84
2023/09/23 06:42:15;;;;;;;12.70;6.28;;;9.00;99.90;;;;;;5026201;28;20029;-83
2023/09/23 06:44:42;;;;;;;12.57;5.93;;;9.10;99.90;;;;;;5016505;28;20044;-84
2023/09/23 06:47:08;;;;;;;9.80;6.50;;;9.10;99.90;;;;;;5029081;28;20021;-84
2023/09/23 06:49:35;;;;;;;7.50;5.85;;;9.10;99.90;;;;;;5047223;28;20040;-84
2023/09/23 06:52:01;;;;;;;12.10;7.15;;;9.10;99.90;;;;;;5023316;28;20534;-84
2023/09/23 06:54:26;;;;;;;13.52;6.72;;;9.20;99.90;;;;;;5031506;28;20115;-84
2023/09/23 06:56:55;;;;;;;14.90;7.20;;;9.30;99.90;;;;;;5025401;28;20027;-84
2023/09/23 06:59:21;;;;;;;9.55;6.05;;;9.40;99.90;;;;;;5036390;28;20030;-84
2023/09/23 07:01:47;;;;;;;9.07;5.72;;;9.60;99.90;;;;;;5043991;28;20041;-84
2023/09/23 07:04:13;;;;;;;10.80;5.78;;;9.60;99.90;;;;;;5026261;28;20039;-84
2023/09/23 07:06:39;;;;;;;10.82;5.63;;;9.70;99.90;;;;;;5037000;28;20120;-84
2023/09/23 07:09:04;;;;;;;10.40;5.00;;;9.90;99.90;;;;;;5010089;28;20504;-85
2023/09/23 07:11:31;;;;;;;9.88;5.75;;;10.00;99.90;;;;;;5023820;28;20032;-85
2023/09/23 07:13:58;;;;;;;7.05;4.65;;;10.10;99.90;;;;;;5039990;28;20116;-84
2023/09/23 07:16:27;;;;;;;11.57;5.55;;;10.20;99.90;;;;;;5030937;28;20047;-85
2023/09/23 07:18:53;;;;;;;6.63;4.30;;;10.20;99.90;;;;;;5046343;28;20041;-84
2023/09/23 07:21:19;;;;;;;8.20;3.90;;;10.20;99.90;;;;;;5037489;28;20036;-84
2023/09/23 07:23:45;;;;;;;7.85;4.38;;;10.10;99.90;;;;;;5016632;28;20086;-84
2023/09/23 07:26:21;;;;;;;6.10;3.60;;;10.10;99.90;;;;;;5022267;28;20499;-84
2023/09/23 07:28:47;;;;;;;7.32;3.80;;;10.00;99.90;;;;;;5037625;28;20021;-84
2023/09/23 07:31:12;;;;;;;10.63;3.60;;;10.00;99.90;;;;;;5028505;28;20036;-84
2023/09/23 07:33:38;;;;;;;9.70;3.90;;;10.00;99.90;;;;;;5021619;28;20079;-84
2023/09/23 07:36:14;;;;;;;5.75;3.40;;;9.90;99.90;;;;;;5032895;28;20480;-84
2023/09/23 07:38:40;;;;;;;8.20;3.20;;;9.90;99.90;;;;;;5041373;28;20167;-84
2023/09/23 07:41:06;;;;;;;5.47;2.97;;;9.90;99.90;;;;;;5035180;28;20067;-84
2023/09/23 07:43:33;;;;;;;6.68;3.10;;;10.00;99.90;;;;;;5032642;28;20029;-85
2023/09/23 07:45:59;;;;;;;8.57;3.63;;;10.10;99.90;;;;;;5034358;28;20036;-84
2023/09/23 07:48:24;;;;;;;8.20;3.40;;;10.10;99.90;;;;;;5035713;28;20025;-85
2023/09/23 07:50:50;;;;;;;11.65;3.95;;;10.20;99.90;;;;;;5019380;28;20033;-85
2023/09/23 07:53:16;;;;;;;8.85;3.25;;;10.50;99.90;;;;;;5008920;28;20021;-85
2023/09/23 07:55:43;;;;;;;5.75;2.78;;;10.80;99.90;;;;;;5015662;28;20128;-85
2023/09/23 07:58:09;;;;;;;3.95;2.90;;;11.00;99.90;;;;;;5010523;28;20028;-85
2023/09/23 08:00:44;;;;;;;9.32;2.75;;;11.30;99.90;;;;;;5038437;28;20484;-85
2023/09/23 08:03:09;;;;;;;3.53;2.80;;;11.40;99.90;;;;;;5032862;28;20448;-84
2023/09/23 08:05:35;;;;;;;8.70;3.78;;;11.30;99.90;;;;;;5038635;28;20061;-84
2023/09/23 08:08:01;;;;;;;6.95;2.70;;;11.20;99.90;;;;;;5037920;28;20121;-84
2023/09/23 08:10:26;;;;;;;5.20;2.97;;;11.20;99.90;;;;;;5029569;28;20084;-85
2023/09/23 08:12:52;;;;;;;5.25;2.50;;;11.20;99.90;;;;;;5035585;28;20051;-85
2023/09/23 08:15:18;;;;;;;5.75;2.83;;;11.40;99.90;;;;;;5016830;28;20026;-85
2023/09/23 08:17:44;;;;;;;7.68;2.45;;;11.40;99.90;;;;;;5022746;28;20027;-84
2023/09/23 08:20:23;;;;;;;7.55;2.40;;;11.60;99.90;;;;;;5041823;28;20029;-85
2023/09/23 08:22:49;;;;;;;3.97;2.53;;;11.50;99.90;;;;;;5044158;28;20056;-84
2023/09/23 08:25:17;;;;;;;24.80;3.58;;;11.80;99.90;;;;;;5035257;28;20439;-84
2023/09/23 08:27:43;;;;;;;5.80;2.35;;;12.10;99.90;;;;;;5052496;28;20013;-85
2023/09/23 08:30:13;;;;;;;6.80;2.13;;;12.30;99.90;;;;;;5042449;28;20037;-85
2023/09/23 08:32:39;;;;;;;7.05;2.28;;;12.40;99.90;;;;;;5018457;28;20052;-84
2023/09/23 08:35:07;;;;;;;4.68;2.15;;;12.30;99.90;;;;;;5022650;28;20068;-85
2023/09/23 08:37:33;;;;;;;5.47;2.63;;;12.10;99.90;;;;;;5029195;28;20025;-85
2023/09/23 08:39:59;;;;;;;6.78;2.75;;;11.80;99.90;;;;;;5033443;28;20139;-85
2023/09/23 08:42:25;;;;;;;5.32;1.85;;;11.70;99.90;;;;;;5027974;28;20032;-85
2023/09/23 08:44:51;;;;;;;4.22;1.85;;;11.80;99.90;;;;;;5013416;28;20025;-85
2023/09/23 08:47:20;;;;;;;5.22;2.15;;;12.10;99.90;;;;;;5018510;28;20495;-85
2023/09/23 08:49:49;;;;;;;4.47;1.90;;;12.30;99.90;;;;;;5038935;28;20056;-85
2023/09/23 08:53:02;;;;;;;3.47;1.90;;;12.90;99.90;;;;;;5031395;28;20022;-86
2023/09/23 08:55:29;;;;;;;8.32;1.77;;;12.90;99.90;;;;;;5043900;28;20033;-85
2023/09/23 08:58:04;;;;;;;4.57;1.90;;;12.90;99.90;;;;;;5012602;28;20172;-85
2023/09/23 09:00:30;;;;;;;4.05;1.63;;;13.40;99.90;;;;;;5013607;28;20711;-86
2023/09/23 09:02:57;;;;;;;6.78;1.90;;;14.60;99.90;;;;;;5018230;28;20872;-82
2023/09/23 09:05:23;;;;;;;3.60;1.50;;;15.70;99.90;;;;;;5034860;28;20036;-83
2023/09/23 09:07:49;;;;;;;2.67;1.05;;;16.00;99.90;;;;;;5016189;28;20504;-86
2023/09/23 09:10:17;;;;;;;10.60;1.58;;;16.10;99.90;;;;;;5040369;28;20021;-83
2023/09/23 09:12:42;;;;;;;4.57;1.45;;;15.50;99.90;;;;;;5039904;28;20408;-84
2023/09/23 09:15:09;;;;;;;2.35;1.20;;;15.10;99.90;;;;;;5034463;28;20025;-84
2023/09/23 09:17:34;;;;;;;9.55;1.70;;;14.70;99.90;;;;;;5030928;28;20120;-84
2023/09/23 09:20:12;;;;;;;5.05;1.70;;;14.70;99.90;;;;;;5031182;28;20116;-84
2023/09/23 09:23:12;;;;;;;6.63;1.60;;;14.70;99.90;;;;;;5004464;28;20025;-84
2023/09/23 09:25:38;;;;;;;4.80;1.42;;;14.80;99.90;;;;;;5040882;28;20032;-84
2023/09/23 09:28:03;;;;;;;4.20;1.48;;;15.00;99.90;;;;;;5034245;28;20116;-84
2023/09/23 09:30:31;;;;;;;4.82;1.52;;;15.60;99.90;;;;;;5005446;28;20029;-84
2023/09/23 09:33:08;;;;;;;4.43;1.23;;;16.00;99.90;;;;;;5034835;28;20036;-83
2023/09/23 09:35:34;;;;;;;7.38;1.48;;;16.30;99.90;;;;;;5043705;28;20039;-84
2023/09/23 09:38:05;;;;;;;4.40;1.80;;;16.00;99.90;;;;;;5035412;28;20504;-85
2023/09/23 09:40:31;;;;;;;4.47;1.95;;;16.30;99.90;;;;;;5034902;28;20687;-85
2023/09/23 09:43:00;;;;;;;5.00;1.48;;;16.40;99.90;;;;;;5025575;28;20515;-85
2023/09/23 09:45:27;;;;;;;3.33;1.65;;;17.40;99.90;;;;;;5043636;28;20032;-85
2023/09/23 09:47:57;;;;;;;4.28;1.38;;;17.60;99.90;;;;;;5021691;28;20430;-85
2023/09/23 09:50:23;;;;;;;7.53;1.50;;;17.60;99.90;;;;;;5034985;28;20032;-85
2023/09/23 09:52:49;;;;;;;6.78;1.50;;;17.10;99.90;;;;;;5050558;28;20031;-85
2023/09/23 09:55:20;;;;;;;7.47;1.67;;;17.20;99.90;;;;;;5025917;28;20496;-85
2023/09/23 09:57:48;;;;;;;2.25;0.98;;;17.10;99.90;;;;;;5034408;28;20075;-85
2023/09/23 10:00:35;;;;;;;4.35;1.13;;;16.80;99.90;;;;;;5019277;28;20033;-84
2023/09/23 10:03:08;;;;;;;6.13;1.08;;;17.20;99.90;;;;;;5035026;28;20034;-85
2023/09/23 10:05:46;;;;;;;7.47;1.90;;;18.20;99.90;;;;;;5051807;28;20029;-85
2023/09/23 10:08:24;;;;;;;7.63;1.63;;;18.40;99.90;;;;;;5028036;28;20109;-86
2023/09/23 10:10:57;;;;;;;8.82;1.60;;;18.20;99.90;;;;;;5041132;28;20071;-85
2023/09/23 10:13:24;;;;;;;4.07;1.77;;;17.60;99.90;;;;;;5037052;28;20104;-86
2023/09/23 10:15:50;;;;;;;6.13;1.70;;;17.00;99.90;;;;;;5034421;28;20018;-86
2023/09/23 10:18:20;;;;;;;6.00;1.50;;;17.50;99.90;;;;;;5018396;28;20079;-86
2023/09/23 10:20:56;;;;;;;2.42;1.00;;;18.20;99.90;;;;;;5022626;28;20029;-87
2023/09/23 10:23:22;;;;;;;3.03;1.08;;;18.50;99.90;;;;;;5018061;28;20037;-86
2023/09/23 10:25:50;;;;;;;4.10;1.25;;;18.90;99.90;;;;;;5033720;28;20729;-86
2023/09/23 10:28:28;;;;;;;3.20;1.10;;;19.50;99.90;;;;;;5030700;28;20104;-85
2023/09/23 10:31:05;;;;;;;9.93;1.48;;;19.30;99.90;;;;;;5018875;28;20751;-86
2023/09/23 10:33:56;;;;;;;13.15;1.60;;;18.40;99.90;;;;;;5034460;28;20029;-85
2023/09/23 10:36:22;;;;;;;9.60;1.30;;;17.10;99.90;;;;;;5021812;28;20029;-86
2023/09/23 10:38:49;;;;;;;5.47;1.40;;;16.10;99.90;;;;;;5034808;28;20033;-85
2023/09/23 10:41:14;;;;;;;8.40;1.50;;;16.40;99.90;;;;;;5017781;28;20060;-85
2023/09/23 10:43:40;;;;;;;6.63;1.33;;;16.40;99.90;;;;;;5021712;28;20063;-86
2023/09/23 10:46:06;;;;;;;8.95;1.92;;;15.70;99.90;;;;;;5022034;28;20070;-86
2023/09/23 10:48:32;;;;;;;5.90;1.30;;;15.10;99.90;;;;;;5012125;28;20113;-85
2023/09/23 10:51:00;;;;;;;5.18;1.48;;;14.90;99.90;;;;;;5025645;28;20063;-86
2023/09/23 10:53:29;;;;;;;5.53;1.70;;;14.90;99.90;;;;;;5043053;28;20030;-86
2023/09/23 10:55:58;;;;;;;2.55;0.98;;;15.00;99.90;;;;;;5029277;28;20059;-86
2023/09/23 10:58:24;;;;;;;5.10;1.30;;;15.30;99.90;;;;;;5037832;28;20063;-85
2023/09/23 11:00:52;;;;;;;2.58;1.27;;;16.20;99.90;;;;;;5018118;28;20537;-86
2023/09/23 11:03:19;;;;;;;5.18;1.70;;;16.90;99.90;;;;;;5028725;28;20056;-86
2023/09/23 11:05:48;;;;;;;3.22;1.10;;;18.00;99.90;;;;;;5034762;28;20555;-86
2023/09/23 11:08:15;;;;;;;4.32;1.10;;;18.30;99.90;;;;;;5030791;28;20456;-86
2023/09/23 11:10:42;;;;;;;2.60;1.25;;;18.00;99.90;;;;;;5041354;28;20026;-86
2023/09/23 11:13:11;;;;;;;3.17;0.95;;;17.50;99.90;;;;;;5039841;28;20057;-86
2023/09/23 11:15:41;;;;;;;2.08;1.00;;;17.20;99.90;;;;;;5035989;28;20092;-86
2023/09/23 11:18:08;;;;;;;3.80;1.13;;;17.50;99.90;;;;;;5026655;28;20364;-85
2023/09/23 11:20:37;;;;;;;5.03;1.10;;;18.00;99.90;;;;;;5046896;28;20037;-87
2023/09/23 11:23:05;;;;;;;7.93;1.38;;;17.90;99.90;;;;;;5027401;28;20485;-86
2023/09/23 11:25:35;;;;;;;5.78;1.65;;;18.50;99.90;;;;;;5044766;28;20030;-86
2023/09/23 11:28:01;;;;;;;4.50;1.00;;;19.20;99.90;;;;;;5031964;28;20465;-86
2023/09/23 11:30:27;;;;;;;8.48;1.60;;;18.90;99.90;;;;;;5011883;28;20021;-85
2023/09/23 11:32:53;;;;;;;5.03;1.25;;;18.50;99.90;;;;;;5018625;28;20025;-86
2023/09/23 11:35:20;;;;;;;2.97;1.00;;;18.10;99.90;;;;;;5022660;28;20112;-85
2023/09/23 11:37:47;;;;;;;3.88;1.27;;;17.90;99.90;;;;;;5053959;28;20029;-85
2023/09/23 11:40:14;;;;;;;3.03;1.23;;;18.00;99.90;;;;;;5043007;28;20044;-86
2023/09/23 11:42:41;;;;;;;5.63;1.20;;;18.10;99.90;;;;;;5037335;28;20032;-87
2023/09/23 11:45:10;;;;;;;6.45;1.45;;;17.80;99.90;;;;;;5050647;28;20059;-85
2023/09/23 11:47:38;;;;;;;4.18;1.52;;;17.90;99.90;;;;;;5044029;28;20100;-85
2023/09/23 11:50:05;;;;;;;3.22;1.33;;;18.50;99.90;;;;;;5039984;28;20129;-85
2023/09/23 11:52:34;;;;;;;5.95;2.25;;;19.60;99.90;;;;;;5041427;28;20495;-86
2023/09/23 11:55:01;;;;;;;7.55;1.75;;;19.70;99.90;;;;;;5015263;28;20116;-84
2023/09/23 11:57:26;;;;;;;4.00;1.40;;;19.30;99.90;;;;;;5008454;28;20350;-85
2023/09/23 11:59:52;;;;;;;2.55;1.17;;;19.00;99.90;;;;;;5025752;28;20075;-86
2023/09/23 12:02:59;;;;;;;4.57;1.17;;;18.50;99.90;;;;;;5015528;28;20029;-85
2023/09/23 12:05:28;;;;;;;4.18;1.33;;;18.40;99.90;;;;;;5034553;28;20072;-84
2023/09/23 12:07:58;;;;;;;4.10;1.30;;;17.60;99.90;;;;;;5024948;28;20041;-84
2023/09/23 12:10:27;;;;;;;8.80;1.80;;;16.80;99.90;;;;;;5041506;28;20036;-84
2023/09/23 12:12:53;;;;;;;4.65;1.40;;;16.20;99.90;;;;;;5038277;28;20026;-84
2023/09/23 12:15:19;;;;;;;4.05;1.10;;;15.70;99.90;;;;;;5032833;28;20082;-84
2023/09/23 12:17:44;;;;;;;3.40;1.20;;;15.50;99.90;;;;;;5041973;28;20021;-84
2023/09/23 12:20:11;;;;;;;9.07;1.35;;;15.80;99.90;;;;;;5020645;28;20029;-84
2023/09/23 12:22:38;;;;;;;4.40;1.02;;;16.30;99.90;;;;;;5010175;28;20064;-84
2023/09/23 12:25:05;;;;;;;3.28;1.00;;;17.00;99.90;;;;;;5031179;28;20176;-84
2023/09/23 12:27:31;;;;;;;2.75;0.90;;;17.30;99.90;;;;;;5032887;28;20123;-85
2023/09/23 12:29:56;;;;;;;2.45;1.33;;;16.90;99.90;;;;;;5029186;28;20785;-85
2023/09/23 12:32:22;;;;;;;10.50;1.55;;;16.90;99.90;;;;;;5033832;28;20064;-85
2023/09/23 12:34:49;;;;;;;2.20;1.17;;;17.30;99.90;;;;;;5028083;28;20033;-85
2023/09/23 12:37:15;;;;;;;2.88;1.10;;;17.00;99.90;;;;;;5031848;28;20032;-85
2023/09/23 12:39:41;;;;;;;9.07;1.08;;;17.00;99.90;;;;;;5016642;28;20132;-85
2023/09/23 12:42:07;;;;;;;4.22;1.30;;;16.90;99.90;;;;;;5018161;28;20029;-85
2023/09/23 12:44:32;;;;;;;7.22;1.15;;;16.90;99.90;;;;;;5018138;28;20029;-85
2023/09/23 12:46:58;;;;;;;3.83;1.38;;;17.10;99.90;;;;;;5021120;28;20032;-85
2023/09/23 12:49:24;;;;;;;3.13;1.35;;;17.10;99.90;;;;;;5018975;28;20029;-86
2023/09/23 12:51:49;;;;;;;3.60;1.05;;;16.70;99.90;;;;;;5023962;28;20029;-85
2023/09/23 12:58:44;;;;;;;5.03;1.67;;;15.90;99.90;;;;;;5049004;28;20051;-85
2023/09/23 13:01:09;;;;;;;3.22;1.17;;;15.30;99.90;;;;;;5005569;28;20115;-85
2023/09/23 13:03:35;;;;;;;8.13;1.65;;;15.10;99.90;;;;;;5022525;28;20860;-84